sensor_id;sensor_type;location;lat;lon;timestamp;pressure;altitude;pressure_sealevel;temperature;humidity
3250;BME280;1637;42.020;23.992;2022-10-20T00:01:58;93160.13;;;6.36;69.12
3250;BME280;1637;42.020;23.992;2022-10-20T00:04:24;93175.44;;;6.50;68.46
3250;BME280;1637;42.020;23.992;2022-10-20T00:06:51;93171.78;;;6.65;68.54
3250;BME280;1637;42.020;23.992;2022-10-20T00:09:18;93161.69;;;6.07;69.81
3250;BME280;1637;42.020;23.992;2022-10-20T00:11:46;93164.28;;;6.00;70.06
3250;BME280;1637;42.020;23.992;2022-10-20T00:14:13;93169.09;;;6.21;70.16
3250;BME280;1637;42.020;23.992;2022-10-20T00:16:40;93166.31;;;5.84;70.97
3250;BME280;1637;42.020;23.992;2022-10-20T00:19:06;93159.03;;;6.07;70.04
3250;BME280;1637;42.020;23.992;2022-10-20T00:21:33;93155.47;;;5.93;70.96
3250;BME280;1637;42.020;23.992;2022-10-20T00:24:01;93157.56;;;6.10;69.98
3250;BME280;1637;42.020;23.992;2022-10-20T00:26:30;93157.59;;;6.13;70.19
3250;BME280;1637;42.020;23.992;2022-10-20T00:29:00;93132.63;;;5.62;71.35
3250;BME280;1637;42.020;23.992;2022-10-20T00:31:27;93167.72;;;6.01;70.79
3250;BME280;1637;42.020;23.992;2022-10-20T00:33:53;93166.34;;;6.14;70.48
3250;BME280;1637;42.020;23.992;2022-10-20T00:36:21;93164.63;;;6.32;69.82
3250;BME280;1637;42.020;23.992;2022-10-20T00:38:49;93163.56;;;6.37;69.81
3250;BME280;1637;42.020;23.992;2022-10-20T00:41:19;93163.56;;;6.37;69.41
3250;BME280;1637;42.020;23.992;2022-10-20T00:43:48;93147.22;;;6.38;69.83
3250;BME280;1637;42.020;23.992;2022-10-20T00:46:19;93157.88;;;6.38;69.35
3250;BME280;1637;42.020;23.992;2022-10-20T00:48:49;93151.25;;;6.22;70.07
3250;BME280;1637;42.020;23.992;2022-10-20T00:51:20;93153.53;;;6.27;70.20
3250;BME280;1637;42.020;23.992;2022-10-20T00:53:49;93148.75;;;6.39;69.75
3250;BME280;1637;42.020;23.992;2022-10-20T00:56:18;93145.56;;;6.23;70.59
3250;BME280;1637;42.020;23.992;2022-10-20T00:58:45;93132.84;;;6.43;70.12
3250;BME280;1637;42.020;23.992;2022-10-20T01:01:13;93136.47;;;6.28;70.40
3250;BME280;1637;42.020;23.992;2022-10-20T01:03:44;93142.41;;;6.14;70.72
3250;BME280;1637;42.020;23.992;2022-10-20T01:06:13;93143.75;;;5.97;71.53
3250;BME280;1637;42.020;23.992;2022-10-20T01:08:40;93133.47;;;6.33;70.80
3250;BME280;1637;42.020;23.992;2022-10-20T01:11:15;93133.66;;;6.50;70.02
3250;BME280;1637;42.020;23.992;2022-10-20T01:13:51;93132.00;;;6.35;70.64
3250;BME280;1637;42.020;23.992;2022-10-20T01:16:27;93133.97;;;6.42;70.59
3250;BME280;1637;42.020;23.992;2022-10-20T01:19:06;93140.50;;;6.14;71.04
3250;BME280;1637;42.020;23.992;2022-10-20T01:21:57;93140.47;;;6.11;72.28
3250;BME280;1637;42.020;23.992;2022-10-20T01:24:44;93134.84;;;6.16;72.01
3250;BME280;1637;42.020;23.992;2022-10-20T01:27:30;93130.00;;;6.29;71.39
3250;BME280;1637;42.020;23.992;2022-10-20T01:30:07;93137.81;;;6.11;72.28
3250;BME280;1637;42.020;23.992;2022-10-20T01:35:32;93126.72;;;6.02;72.44
3250;BME280;1637;42.020;23.992;2022-10-20T01:38:06;93134.56;;;5.91;73.02
3250;BME280;1637;42.020;23.992;2022-10-20T01:40:41;93139.16;;;5.94;72.66
3250;BME280;1637;42.020;23.992;2022-10-20T01:43:12;93117.56;;;6.03;72.38
3250;BME280;1637;42.020;23.992;2022-10-20T01:45:43;93144.13;;;6.33;72.45
3250;BME280;1637;42.020;23.992;2022-10-20T01:48:13;93152.38;;;6.20;71.95
3250;BME280;1637;42.020;23.992;2022-10-20T01:50:40;93136.88;;;5.66;73.36
3250;BME280;1637;42.020;23.992;2022-10-20T01:53:08;93150.19;;;5.96;73.91
3250;BME280;1637;42.020;23.992;2022-10-20T01:55:36;93149.38;;;5.92;74.34
3250;BME280;1637;42.020;23.992;2022-10-20T01:58:17;93148.28;;;5.67;75.51
3250;BME280;1637;42.020;23.992;2022-10-20T02:00:46;93146.38;;;5.67;75.07
3250;BME280;1637;42.020;23.992;2022-10-20T02:03:26;93145.75;;;5.77;75.47
3250;BME280;1637;42.020;23.992;2022-10-20T02:06:06;93149.16;;;6.08;74.08
3250;BME280;1637;42.020;23.992;2022-10-20T02:08:38;93145.78;;;6.11;73.49
3250;BME280;1637;42.020;23.992;2022-10-20T02:11:13;93145.88;;;6.18;73.25
3250;BME280;1637;42.020;23.992;2022-10-20T02:13:45;93155.13;;;6.31;73.16
3250;BME280;1637;42.020;23.992;2022-10-20T02:16:17;93153.31;;;6.05;73.71
3250;BME280;1637;42.020;23.992;2022-10-20T02:18:46;93174.94;;;5.74;75.07
3250;BME280;1637;42.020;23.992;2022-10-20T02:21:14;93185.28;;;5.52;75.87
3250;BME280;1637;42.020;23.992;2022-10-20T02:23:43;93169.72;;;5.81;74.91
3250;BME280;1637;42.020;23.992;2022-10-20T02:26:14;93172.38;;;5.81;75.14
3250;BME280;1637;42.020;23.992;2022-10-20T02:28:47;93181.41;;;5.46;76.52
3250;BME280;1637;42.020;23.992;2022-10-20T02:31:15;93182.41;;;5.65;75.97
3250;BME280;1637;42.020;23.992;2022-10-20T02:33:43;93178.31;;;5.71;75.38
3250;BME280;1637;42.020;23.992;2022-10-20T02:36:15;93176.16;;;5.80;74.99
3250;BME280;1637;42.020;23.992;2022-10-20T02:38:44;93200.47;;;5.82;75.17
3250;BME280;1637;42.020;23.992;2022-10-20T02:41:10;93197.09;;;5.85;75.61
3250;BME280;1637;42.020;23.992;2022-10-20T02:43:37;93195.16;;;5.82;75.02
3250;BME280;1637;42.020;23.992;2022-10-20T02:46:06;93209.19;;;5.79;75.55
3250;BME280;1637;42.020;23.992;2022-10-20T02:48:33;93214.16;;;5.28;77.32
3250;BME280;1637;42.020;23.992;2022-10-20T02:50:59;93207.97;;;5.73;76.40
3250;BME280;1637;42.020;23.992;2022-10-20T02:53:26;93203.13;;;5.82;76.19
3250;BME280;1637;42.020;23.992;2022-10-20T02:55:53;93208.56;;;5.89;75.72
3250;BME280;1637;42.020;23.992;2022-10-20T02:58:20;93205.59;;;5.38;76.76
3250;BME280;1637;42.020;23.992;2022-10-20T03:00:48;93214.50;;;5.26;77.96
3250;BME280;1637;42.020;23.992;2022-10-20T03:03:17;93176.97;;;5.28;76.95
3250;BME280;1637;42.020;23.992;2022-10-20T03:05:44;93221.31;;;5.76;78.00
3250;BME280;1637;42.020;23.992;2022-10-20T03:08:12;93226.38;;;5.59;77.84
3250;BME280;1637;42.020;23.992;2022-10-20T03:10:39;93225.84;;;5.49;78.01
3250;BME280;1637;42.020;23.992;2022-10-20T03:13:07;93242.22;;;5.51;79.44
3250;BME280;1637;42.020;23.992;2022-10-20T03:15:34;93228.00;;;5.67;77.63
3250;BME280;1637;42.020;23.992;2022-10-20T03:18:01;93232.66;;;5.73;77.92
3250;BME280;1637;42.020;23.992;2022-10-20T03:20:29;93237.78;;;5.59;80.51
3250;BME280;1637;42.020;23.992;2022-10-20T03:22:56;93232.59;;;5.43;78.91
3250;BME280;1637;42.020;23.992;2022-10-20T03:25:23;93236.31;;;5.65;77.08
3250;BME280;1637;42.020;23.992;2022-10-20T03:27:50;93229.13;;;5.66;78.67
3250;BME280;1637;42.020;23.992;2022-10-20T03:30:17;93226.63;;;5.50;81.22
3250;BME280;1637;42.020;23.992;2022-10-20T03:32:43;93288.28;;;5.63;79.93
3250;BME280;1637;42.020;23.992;2022-10-20T03:35:10;93244.91;;;5.55;78.29
3250;BME280;1637;42.020;23.992;2022-10-20T03:37:38;93230.47;;;5.52;78.02
3250;BME280;1637;42.020;23.992;2022-10-20T03:40:06;93235.41;;;5.05;79.77
3250;BME280;1637;42.020;23.992;2022-10-20T03:42:33;93246.97;;;5.39;78.43
3250;BME280;1637;42.020;23.992;2022-10-20T03:45:00;93249.22;;;5.40;77.72
3250;BME280;1637;42.020;23.992;2022-10-20T03:47:27;93247.75;;;4.94;79.82
3250;BME280;1637;42.020;23.992;2022-10-20T03:49:53;93251.25;;;5.24;78.81
3250;BME280;1637;42.020;23.992;2022-10-20T03:52:20;93255.91;;;4.62;81.27
3250;BME280;1637;42.020;23.992;2022-10-20T03:54:49;93253.06;;;5.16;79.65
3250;BME280;1637;42.020;23.992;2022-10-20T03:57:16;93261.69;;;4.68;82.43
3250;BME280;1637;42.020;23.992;2022-10-20T03:59:43;93266.66;;;4.69;82.41
3250;BME280;1637;42.020;23.992;2022-10-20T04:02:22;93258.34;;;4.71;82.89
3250;BME280;1637;42.020;23.992;2022-10-20T04:04:54;93254.31;;;4.80;83.24
3250;BME280;1637;42.020;23.992;2022-10-20T04:07:20;93251.25;;;4.78;83.23
3250;BME280;1637;42.020;23.992;2022-10-20T04:09:49;93258.88;;;4.80;81.62
3250;BME280;1637;42.020;23.992;2022-10-20T04:12:16;93253.13;;;4.97;81.29
3250;BME280;1637;42.020;23.992;2022-10-20T04:14:42;93248.75;;;4.86;81.36
3250;BME280;1637;42.020;23.992;2022-10-20T04:17:09;93240.63;;;4.78;82.47
3250;BME280;1637;42.020;23.992;2022-10-20T04:19:36;93245.78;;;4.68;83.22
3250;BME280;1637;42.020;23.992;2022-10-20T04:22:03;93247.13;;;4.81;82.58
3250;BME280;1637;42.020;23.992;2022-10-20T04:24:30;93250.91;;;4.57;82.91
3250;BME280;1637;42.020;23.992;2022-10-20T04:26:58;93250.09;;;4.76;83.12
3250;BME280;1637;42.020;23.992;2022-10-20T04:29:25;93249.00;;;4.58;85.50
3250;BME280;1637;42.020;23.992;2022-10-20T04:31:52;93253.16;;;4.78;83.14
3250;BME280;1637;42.020;23.992;2022-10-20T04:34:18;93260.50;;;4.65;84.66
3250;BME280;1637;42.020;23.992;2022-10-20T04:36:45;93252.75;;;4.14;89.08
3250;BME280;1637;42.020;23.992;2022-10-20T04:39:12;93246.66;;;4.33;89.38
3250;BME280;1637;42.020;23.992;2022-10-20T04:41:39;93251.66;;;4.38;90.10
3250;BME280;1637;42.020;23.992;2022-10-20T04:44:07;93253.28;;;4.04;90.69
3250;BME280;1637;42.020;23.992;2022-10-20T04:46:34;93251.75;;;4.42;89.42
3250;BME280;1637;42.020;23.992;2022-10-20T04:49:01;93265.06;;;4.45;86.48
3250;BME280;1637;42.020;23.992;2022-10-20T04:51:27;93266.94;;;4.64;85.67
3250;BME280;1637;42.020;23.992;2022-10-20T04:53:54;93274.94;;;4.87;84.55
3250;BME280;1637;42.020;23.992;2022-10-20T04:56:21;93277.97;;;4.47;85.38
3250;BME280;1637;42.020;23.992;2022-10-20T04:58:48;93278.59;;;4.40;87.30
3250;BME280;1637;42.020;23.992;2022-10-20T05:01:17;93278.97;;;4.81;85.67
3250;BME280;1637;42.020;23.992;2022-10-20T05:03:44;93268.09;;;5.09;84.05
3250;BME280;1637;42.020;23.992;2022-10-20T05:06:13;93292.41;;;5.11;83.33
3250;BME280;1637;42.020;23.992;2022-10-20T05:08:41;93298.44;;;5.31;81.87
3250;BME280;1637;42.020;23.992;2022-10-20T05:11:09;93296.66;;;5.38;82.42
3250;BME280;1637;42.020;23.992;2022-10-20T05:13:36;93299.94;;;6.34;77.58
3250;BME280;1637;42.020;23.992;2022-10-20T05:16:04;93307.09;;;6.30;77.14
3250;BME280;1637;42.020;23.992;2022-10-20T05:18:33;93315.75;;;6.86;76.02
3250;BME280;1637;42.020;23.992;2022-10-20T05:21:04;93328.41;;;7.34;73.20
3250;BME280;1637;42.020;23.992;2022-10-20T05:23:31;93329.63;;;6.09;76.05
3250;BME280;1637;42.020;23.992;2022-10-20T05:26:00;93340.63;;;6.68;75.79
3250;BME280;1637;42.020;23.992;2022-10-20T05:28:27;93341.59;;;6.82;74.09
3250;BME280;1637;42.020;23.992;2022-10-20T05:30:54;93344.97;;;6.79;74.46
3250;BME280;1637;42.020;23.992;2022-10-20T05:33:21;93345.66;;;7.43;72.81
3250;BME280;1637;42.020;23.992;2022-10-20T05:35:49;93349.03;;;8.36;70.65
3250;BME280;1637;42.020;23.992;2022-10-20T05:38:16;93353.25;;;9.34;66.49
3250;BME280;1637;42.020;23.992;2022-10-20T05:40:43;93354.06;;;9.70;65.29
3250;BME280;1637;42.020;23.992;2022-10-20T05:43:10;93365.53;;;10.56;61.73
3250;BME280;1637;42.020;23.992;2022-10-20T05:45:36;93359.78;;;10.54;62.23
3250;BME280;1637;42.020;23.992;2022-10-20T05:48:04;93361.91;;;11.09;59.93
3250;BME280;1637;42.020;23.992;2022-10-20T05:50:31;93350.66;;;11.42;58.49
3250;BME280;1637;42.020;23.992;2022-10-20T05:52:59;93369.91;;;11.89;56.72
3250;BME280;1637;42.020;23.992;2022-10-20T05:55:26;93372.38;;;12.21;55.92
3250;BME280;1637;42.020;23.992;2022-10-20T05:57:52;93384.34;;;12.54;55.22
3250;BME280;1637;42.020;23.992;2022-10-20T06:00:19;93374.84;;;12.46;56.66
3250;BME280;1637;42.020;23.992;2022-10-20T06:02:55;93393.97;;;13.30;54.19
3250;BME280;1637;42.020;23.992;2022-10-20T06:05:22;93396.59;;;13.64;53.77
3250;BME280;1637;42.020;23.992;2022-10-20T06:07:51;93407.63;;;14.97;50.37
3250;BME280;1637;42.020;23.992;2022-10-20T06:10:20;93416.31;;;15.47;49.51
3250;BME280;1637;42.020;23.992;2022-10-20T06:12:46;93427.75;;;15.75;47.85
3250;BME280;1637;42.020;23.992;2022-10-20T06:15:13;93420.53;;;15.29;49.67
3250;BME280;1637;42.020;23.992;2022-10-20T06:17:40;93426.97;;;15.55;48.36
3250;BME280;1637;42.020;23.992;2022-10-20T06:20:08;93416.28;;;13.57;53.87
3250;BME280;1637;42.020;23.992;2022-10-20T06:22:35;93426.25;;;13.60;54.75
3250;BME280;1637;42.020;23.992;2022-10-20T06:25:02;93434.09;;;15.65;50.61
3250;BME280;1637;42.020;23.992;2022-10-20T06:27:30;93431.47;;;16.17;48.81
3250;BME280;1637;42.020;23.992;2022-10-20T06:29:57;93442.44;;;17.24;46.18
3250;BME280;1637;42.020;23.992;2022-10-20T06:32:23;93442.78;;;16.44;47.21
3250;BME280;1637;42.020;23.992;2022-10-20T06:34:50;93446.03;;;15.67;49.55
3250;BME280;1637;42.020;23.992;2022-10-20T06:37:18;93412.50;;;16.69;47.72
3250;BME280;1637;42.020;23.992;2022-10-20T06:39:45;93457.34;;;17.15;46.30
3250;BME280;1637;42.020;23.992;2022-10-20T06:42:12;93447.59;;;17.18;46.50
3250;BME280;1637;42.020;23.992;2022-10-20T06:44:40;93438.69;;;17.34;45.99
3250;BME280;1637;42.020;23.992;2022-10-20T06:47:07;93452.47;;;18.35;44.51
3250;BME280;1637;42.020;23.992;2022-10-20T06:49:34;93452.34;;;18.90;43.15
3250;BME280;1637;42.020;23.992;2022-10-20T06:52:01;93439.03;;;18.44;43.64
3250;BME280;1637;42.020;23.992;2022-10-20T06:54:28;93440.03;;;19.10;42.44
3250;BME280;1637;42.020;23.992;2022-10-20T06:56:55;93443.13;;;20.00;41.36
3250;BME280;1637;42.020;23.992;2022-10-20T06:59:22;93426.59;;;17.80;45.40
3250;BME280;1637;42.020;23.992;2022-10-20T07:01:50;93435.09;;;18.07;45.08
3250;BME280;1637;42.020;23.992;2022-10-20T07:04:17;93435.84;;;19.31;43.17
3250;BME280;1637;42.020;23.992;2022-10-20T07:06:44;93442.13;;;19.84;42.09
3250;BME280;1637;42.020;23.992;2022-10-20T07:09:14;93442.25;;;18.14;45.75
3250;BME280;1637;42.020;23.992;2022-10-20T07:11:41;93442.75;;;20.41;41.29
3250;BME280;1637;42.020;23.992;2022-10-20T07:14:09;93440.66;;;20.45;40.88
3250;BME280;1637;42.020;23.992;2022-10-20T07:16:37;93436.38;;;19.61;42.65
3250;BME280;1637;42.020;23.992;2022-10-20T07:19:05;93436.66;;;20.68;41.13
3250;BME280;1637;42.020;23.992;2022-10-20T07:21:32;93444.28;;;20.91;39.84
3250;BME280;1637;42.020;23.992;2022-10-20T07:24:01;93443.03;;;20.83;40.31
3250;BME280;1637;42.020;23.992;2022-10-20T07:26:29;93440.53;;;20.58;41.00
3250;BME280;1637;42.020;23.992;2022-10-20T07:28:59;93431.75;;;20.23;42.39
3250;BME280;1637;42.020;23.992;2022-10-20T07:31:29;93434.75;;;20.96;40.77
3250;BME280;1637;42.020;23.992;2022-10-20T07:33:57;93431.63;;;20.57;41.44
3250;BME280;1637;42.020;23.992;2022-10-20T07:36:28;93443.09;;;20.21;42.54
3250;BME280;1637;42.020;23.992;2022-10-20T07:38:57;93434.94;;;21.84;39.13
3250;BME280;1637;42.020;23.992;2022-10-20T07:41:25;93436.16;;;22.52;38.14
3250;BME280;1637;42.020;23.992;2022-10-20T07:43:53;93406.44;;;22.03;39.04
3250;BME280;1637;42.020;23.992;2022-10-20T07:46:21;93401.03;;;22.78;37.11
3250;BME280;1637;42.020;23.992;2022-10-20T07:48:48;93419.38;;;21.48;40.16
3250;BME280;1637;42.020;23.992;2022-10-20T07:51:16;93418.59;;;21.75;39.94
3250;BME280;1637;42.020;23.992;2022-10-20T07:53:51;93415.69;;;21.87;39.77
3250;BME280;1637;42.020;23.992;2022-10-20T07:56:19;93431.31;;;23.61;36.47
3250;BME280;1637;42.020;23.992;2022-10-20T07:58:46;93390.69;;;22.07;38.76
3250;BME280;1637;42.020;23.992;2022-10-20T08:01:13;93422.81;;;22.12;39.47
3250;BME280;1637;42.020;23.992;2022-10-20T08:03:40;93428.41;;;23.41;37.03
3250;BME280;1637;42.020;23.992;2022-10-20T08:06:06;93425.09;;;23.13;37.66
3250;BME280;1637;42.020;23.992;2022-10-20T08:08:33;93434.34;;;23.92;35.98
3250;BME280;1637;42.020;23.992;2022-10-20T08:11:02;93432.91;;;22.30;37.99
3250;BME280;1637;42.020;23.992;2022-10-20T08:13:29;93440.44;;;23.58;35.07
3250;BME280;1637;42.020;23.992;2022-10-20T08:15:56;93429.16;;;22.60;36.53
3250;BME280;1637;42.020;23.992;2022-10-20T08:18:23;93421.06;;;21.36;40.18
3250;BME280;1637;42.020;23.992;2022-10-20T08:20:50;93429.03;;;22.88;37.21
3250;BME280;1637;42.020;23.992;2022-10-20T08:23:17;93420.53;;;23.34;36.49
3250;BME280;1637;42.020;23.992;2022-10-20T08:25:43;93427.06;;;22.88;36.90
3250;BME280;1637;42.020;23.992;2022-10-20T08:28:12;93422.06;;;22.87;37.01
3250;BME280;1637;42.020;23.992;2022-10-20T08:30:38;93418.41;;;21.05;39.80
3250;BME280;1637;42.020;23.992;2022-10-20T08:33:05;93415.91;;;20.62;40.55
3250;BME280;1637;42.020;23.992;2022-10-20T08:35:32;93416.25;;;20.73;40.78
3250;BME280;1637;42.020;23.992;2022-10-20T08:37:59;93417.63;;;20.06;42.16
3250;BME280;1637;42.020;23.992;2022-10-20T08:40:27;93411.53;;;19.49;43.54
3250;BME280;1637;42.020;23.992;2022-10-20T08:42:55;93412.84;;;19.45;44.19
3250;BME280;1637;42.020;23.992;2022-10-20T08:45:26;93400.09;;;19.33;44.01
3250;BME280;1637;42.020;23.992;2022-10-20T08:47:55;93408.00;;;19.62;43.41
3250;BME280;1637;42.020;23.992;2022-10-20T08:50:23;93392.00;;;19.85;43.26
3250;BME280;1637;42.020;23.992;2022-10-20T08:52:54;93404.06;;;19.41;43.92
3250;BME280;1637;42.020;23.992;2022-10-20T08:55:25;93394.59;;;18.76;45.15
3250;BME280;1637;42.020;23.992;2022-10-20T08:57:57;93381.72;;;18.30;45.40
3250;BME280;1637;42.020;23.992;2022-10-20T09:00:27;93394.66;;;18.98;44.42
3250;BME280;1637;42.020;23.992;2022-10-20T09:02:59;93385.03;;;19.19;44.64
3250;BME280;1637;42.020;23.992;2022-10-20T09:05:30;93392.50;;;19.28;43.29
3250;BME280;1637;42.020;23.992;2022-10-20T09:07:58;93394.22;;;19.56;43.22
3250;BME280;1637;42.020;23.992;2022-10-20T09:10:31;93384.75;;;18.70;43.87
3250;BME280;1637;42.020;23.992;2022-10-20T09:13:00;93391.81;;;19.02;43.96
3250;BME280;1637;42.020;23.992;2022-10-20T09:15:28;93397.84;;;19.18;43.81
3250;BME280;1637;42.020;23.992;2022-10-20T09:17:59;93390.72;;;18.52;44.39
3250;BME280;1637;42.020;23.992;2022-10-20T09:20:28;93363.75;;;19.39;42.94
3250;BME280;1637;42.020;23.992;2022-10-20T09:22:57;93402.63;;;19.49;43.62
3250;BME280;1637;42.020;23.992;2022-10-20T09:25:25;93400.34;;;19.13;43.33
3250;BME280;1637;42.020;23.992;2022-10-20T09:27:53;93367.19;;;18.49;45.54
3250;BME280;1637;42.020;23.992;2022-10-20T09:30:22;93392.41;;;19.53;44.07
3250;BME280;1637;42.020;23.992;2022-10-20T09:32:51;93391.69;;;18.58;45.07
3250;BME280;1637;42.020;23.992;2022-10-20T09:35:24;93391.28;;;18.60;45.31
3250;BME280;1637;42.020;23.992;2022-10-20T09:37:56;93392.47;;;18.33;45.95
3250;BME280;1637;42.020;23.992;2022-10-20T09:40:24;93372.47;;;18.78;44.92
3250;BME280;1637;42.020;23.992;2022-10-20T09:42:53;93390.34;;;19.22;42.12
3250;BME280;1637;42.020;23.992;2022-10-20T09:45:22;93386.41;;;19.02;44.29
3250;BME280;1637;42.020;23.992;2022-10-20T09:47:57;93389.41;;;19.60;43.72
3250;BME280;1637;42.020;23.992;2022-10-20T09:50:28;93387.13;;;19.80;44.26
3250;BME280;1637;42.020;23.992;2022-10-20T09:52:57;93398.09;;;19.11;42.59
3250;BME280;1637;42.020;23.992;2022-10-20T09:55:28;93387.59;;;19.01;42.17
3250;BME280;1637;42.020;23.992;2022-10-20T09:57:58;93384.94;;;18.88;43.21
3250;BME280;1637;42.020;23.992;2022-10-20T10:00:29;93374.19;;;18.72;42.61
3250;BME280;1637;42.020;23.992;2022-10-20T10:03:13;93383.53;;;18.71;43.08
3250;BME280;1637;42.020;23.992;2022-10-20T10:05:47;93376.66;;;18.92;45.34
3250;BME280;1637;42.020;23.992;2022-10-20T10:08:14;93366.63;;;19.01;44.53
3250;BME280;1637;42.020;23.992;2022-10-20T10:10:43;93377.09;;;18.90;45.12
3250;BME280;1637;42.020;23.992;2022-10-20T10:13:21;93377.66;;;19.63;43.48
3250;BME280;1637;42.020;23.992;2022-10-20T10:15:58;93380.91;;;19.71;42.88
3250;BME280;1637;42.020;23.992;2022-10-20T10:18:27;93369.59;;;19.50;43.95
3250;BME280;1637;42.020;23.992;2022-10-20T10:20:59;93380.13;;;19.70;44.01
3250;BME280;1637;42.020;23.992;2022-10-20T10:23:27;93349.34;;;20.04;42.02
3250;BME280;1637;42.020;23.992;2022-10-20T10:25:54;93371.97;;;19.70;42.66
3250;BME280;1637;42.020;23.992;2022-10-20T10:28:35;93364.53;;;19.62;42.98
3250;BME280;1637;42.020;23.992;2022-10-20T10:31:20;93360.03;;;19.46;44.01
3250;BME280;1637;42.020;23.992;2022-10-20T10:33:53;93354.28;;;19.44;44.41
3250;BME280;1637;42.020;23.992;2022-10-20T10:36:27;93357.66;;;18.92;45.13
3250;BME280;1637;42.020;23.992;2022-10-20T10:38:55;93356.78;;;18.95;44.97
3250;BME280;1637;42.020;23.992;2022-10-20T10:41:34;93357.00;;;19.22;45.14
3250;BME280;1637;42.020;23.992;2022-10-20T10:44:09;93350.47;;;19.41;44.61
3250;BME280;1637;42.020;23.992;2022-10-20T10:46:42;93346.00;;;19.47;44.44
3250;BME280;1637;42.020;23.992;2022-10-20T10:49:26;93348.94;;;19.53;44.23
3250;BME280;1637;42.020;23.992;2022-10-20T10:52:06;93344.56;;;19.12;44.80
3250;BME280;1637;42.020;23.992;2022-10-20T10:54:44;93348.53;;;19.42;44.36
3250;BME280;1637;42.020;23.992;2022-10-20T10:57:19;93345.47;;;19.52;43.75
3250;BME280;1637;42.020;23.992;2022-10-20T10:59:50;93324.47;;;19.09;44.18
3250;BME280;1637;42.020;23.992;2022-10-20T11:08:13;93335.69;;;19.42;44.08
3250;BME280;1637;42.020;23.992;2022-10-20T11:10:50;93340.25;;;19.67;43.00
3250;BME280;1637;42.020;23.992;2022-10-20T11:13:29;93338.75;;;19.66;42.38
3250;BME280;1637;42.020;23.992;2022-10-20T11:16:10;93334.13;;;19.54;42.50
3250;BME280;1637;42.020;23.992;2022-10-20T11:18:52;93336.28;;;19.90;42.72
3250;BME280;1637;42.020;23.992;2022-10-20T11:21:33;93342.56;;;20.18;42.35
3250;BME280;1637;42.020;23.992;2022-10-20T11:24:23;93335.47;;;20.20;41.65
3250;BME280;1637;42.020;23.992;2022-10-20T11:27:00;93325.97;;;19.54;43.23
3250;BME280;1637;42.020;23.992;2022-10-20T11:29:31;93329.81;;;19.66;43.67
3250;BME280;1637;42.020;23.992;2022-10-20T11:32:06;93323.09;;;19.79;43.27
3250;BME280;1637;42.020;23.992;2022-10-20T11:34:38;93327.19;;;19.53;43.41
3250;BME280;1637;42.020;23.992;2022-10-20T11:37:17;93327.22;;;19.40;43.86
3250;BME280;1637;42.020;23.992;2022-10-20T11:39:50;93329.50;;;18.98;44.41
3250;BME280;1637;42.020;23.992;2022-10-20T11:42:23;93328.88;;;19.38;43.93
3250;BME280;1637;42.020;23.992;2022-10-20T11:44:53;93327.44;;;19.77;43.00
3250;BME280;1637;42.020;23.992;2022-10-20T11:47:26;93319.25;;;19.99;42.63
3250;BME280;1637;42.020;23.992;2022-10-20T11:49:57;93317.38;;;19.86;42.63
3250;BME280;1637;42.020;23.992;2022-10-20T11:52:45;93307.63;;;19.67;43.31
3250;BME280;1637;42.020;23.992;2022-10-20T11:55:43;93315.09;;;19.54;44.00
3250;BME280;1637;42.020;23.992;2022-10-20T11:58:27;93313.53;;;19.22;44.06
3250;BME280;1637;42.020;23.992;2022-10-20T12:01:17;93312.97;;;19.05;45.05
3250;BME280;1637;42.020;23.992;2022-10-20T12:04:18;93301.59;;;19.19;44.48
3250;BME280;1637;42.020;23.992;2022-10-20T12:07:19;93302.66;;;19.44;43.98
3250;BME280;1637;42.020;23.992;2022-10-20T12:10:22;93302.00;;;19.31;44.65
3250;BME280;1637;42.020;23.992;2022-10-20T12:13:00;93301.34;;;19.05;43.86
3250;BME280;1637;42.020;23.992;2022-10-20T12:15:32;93301.91;;;19.00;44.36
3250;BME280;1637;42.020;23.992;2022-10-20T12:18:03;93292.75;;;18.84;44.50
3250;BME280;1637;42.020;23.992;2022-10-20T12:20:56;93296.28;;;19.16;43.81
3250;BME280;1637;42.020;23.992;2022-10-20T12:23:54;93291.59;;;19.38;44.12
3250;BME280;1637;42.020;23.992;2022-10-20T12:27:12;93295.34;;;19.32;44.49
3250;BME280;1637;42.020;23.992;2022-10-20T12:29:50;93279.63;;;18.83;45.28
3250;BME280;1637;42.020;23.992;2022-10-20T12:32:34;93290.75;;;18.98;45.99
3250;BME280;1637;42.020;23.992;2022-10-20T12:35:06;93270.63;;;18.86;45.28
3250;BME280;1637;42.020;23.992;2022-10-20T12:37:54;93288.34;;;19.21;45.09
3250;BME280;1637;42.020;23.992;2022-10-20T12:40:25;93299.72;;;19.07;43.48
3250;BME280;1637;42.020;23.992;2022-10-20T12:42:55;93282.16;;;18.99;43.23
3250;BME280;1637;42.020;23.992;2022-10-20T12:45:31;93272.94;;;18.97;44.43
3250;BME280;1637;42.020;23.992;2022-10-20T12:48:02;93296.38;;;19.03;44.54
3250;BME280;1637;42.020;23.992;2022-10-20T12:50:33;93266.47;;;18.60;45.58
3250;BME280;1637;42.020;23.992;2022-10-20T12:53:12;93287.53;;;18.90;45.66
3250;BME280;1637;42.020;23.992;2022-10-20T12:55:45;93287.00;;;18.61;46.17
3250;BME280;1637;42.020;23.992;2022-10-20T12:58:27;93286.44;;;18.66;46.11
3250;BME280;1637;42.020;23.992;2022-10-20T13:01:09;93283.28;;;18.67;46.28
3250;BME280;1637;42.020;23.992;2022-10-20T13:03:48;93287.44;;;18.81;46.72
3250;BME280;1637;42.020;23.992;2022-10-20T13:06:39;93278.78;;;18.73;46.85
3250;BME280;1637;42.020;23.992;2022-10-20T13:09:20;93278.31;;;19.09;45.84
3250;BME280;1637;42.020;23.992;2022-10-20T13:12:01;93288.59;;;19.14;45.25
3250;BME280;1637;42.020;23.992;2022-10-20T13:14:56;93288.47;;;18.96;45.83
3250;BME280;1637;42.020;23.992;2022-10-20T13:17:44;93288.72;;;18.89;45.79
3250;BME280;1637;42.020;23.992;2022-10-20T13:20:23;93256.66;;;18.75;45.27
3250;BME280;1637;42.020;23.992;2022-10-20T13:22:51;93288.22;;;18.81;45.67
3250;BME280;1637;42.020;23.992;2022-10-20T13:25:31;93289.97;;;18.97;46.08
3250;BME280;1637;42.020;23.992;2022-10-20T13:28:04;93296.56;;;18.87;45.70
3250;BME280;1637;42.020;23.992;2022-10-20T13:30:34;93297.56;;;18.80;45.69
3250;BME280;1637;42.020;23.992;2022-10-20T13:33:06;93330.28;;;18.51;46.13
3250;BME280;1637;42.020;23.992;2022-10-20T13:35:41;93317.22;;;18.72;46.20
3250;BME280;1637;42.020;23.992;2022-10-20T13:38:18;93297.63;;;18.90;45.18
3250;BME280;1637;42.020;23.992;2022-10-20T13:40:52;93297.19;;;18.69;46.74
3250;BME280;1637;42.020;23.992;2022-10-20T13:43:29;93274.00;;;18.43;45.69
3250;BME280;1637;42.020;23.992;2022-10-20T13:46:10;93301.63;;;18.50;46.51